createdAt,value
2018-09-03T11:07:27.425Z,19.00
2018-09-03T11:09:55.720Z,18.90
2018-09-03T11:12:23.923Z,18.80
2018-09-03T11:14:52.131Z,18.70
2018-09-03T11:17:20.422Z,18.50
2018-09-03T11:19:51.528Z,18.40
2018-09-03T11:22:19.777Z,18.50
2018-09-03T11:24:48.012Z,18.30
2018-09-03T11:27:16.201Z,18.30
2018-09-03T11:29:44.388Z,18.30
2018-09-03T11:32:12.625Z,18.10
2018-09-03T11:34:40.839Z,18.10
2018-09-03T11:37:09.076Z,18.40
2018-09-03T11:39:37.297Z,18.50
2018-09-03T11:42:05.525Z,18.80
2018-09-03T11:44:33.725Z,18.80
2018-09-03T11:47:02.015Z,19.10
2018-09-03T11:49:30.198Z,19.50
2018-09-03T11:51:58.403Z,19.50
2018-09-03T11:54:26.574Z,19.40
2018-09-03T11:56:54.762Z,19.70
2018-09-03T11:59:22.938Z,19.70
2018-09-03T12:01:51.324Z,19.90
2018-09-03T12:04:19.496Z,20.40
2018-09-03T12:06:47.707Z,20.20
2018-09-03T12:09:15.896Z,20.30
2018-09-03T12:11:44.080Z,20.90
2018-09-03T12:14:21.159Z,21.00
2018-09-03T12:16:49.339Z,21.40
2018-09-03T12:19:17.581Z,20.80
2018-09-03T12:21:45.787Z,20.50
2018-09-03T12:24:36.707Z,20.50
2018-09-03T12:27:04.924Z,20.20
2018-09-03T12:29:33.121Z,19.90
2018-09-03T12:32:01.347Z,20.10
2018-09-03T12:34:29.531Z,20.00
2018-09-03T12:36:57.786Z,20.00
2018-09-03T12:39:25.964Z,20.30
2018-09-03T12:41:54.155Z,20.30
2018-09-03T12:44:22.359Z,20.40
2018-09-03T12:46:50.638Z,20.60
2018-09-03T12:49:18.832Z,20.70
2018-09-03T12:51:47.059Z,20.70
2018-09-03T12:54:15.279Z,20.80
2018-09-03T12:56:43.635Z,20.50
2018-09-03T12:59:11.891Z,20.80
2018-09-03T13:01:40.160Z,20.60
2018-09-03T13:04:08.435Z,20.70
2018-09-03T13:06:36.636Z,20.40
2018-09-03T13:09:06.907Z,20.50
2018-09-03T13:11:35.101Z,20.50
2018-09-03T13:14:03.363Z,20.80
2018-09-03T13:16:31.559Z,20.90
2018-09-03T13:19:00.790Z,21.10
2018-09-03T13:21:29.340Z,20.80
2018-09-03T13:23:57.665Z,21.00
2018-09-03T13:26:25.893Z,20.30
2018-09-03T13:28:56.180Z,20.40
2018-09-03T13:31:27.960Z,20.50
2018-09-03T13:34:06.971Z,20.50
2018-09-03T13:36:41.399Z,20.40
2018-09-03T13:39:10.399Z,20.70
2018-09-03T13:41:38.760Z,20.90
2018-09-03T13:44:07.343Z,21.00
2018-09-03T13:46:35.639Z,21.10
2018-09-03T13:49:03.859Z,20.60
2018-09-03T13:51:32.112Z,20.70
2018-09-03T13:54:00.412Z,20.90
2018-09-03T13:56:28.632Z,21.40
2018-09-03T13:58:56.852Z,21.30
2018-09-03T14:01:25.038Z,20.90
2018-09-03T14:03:53.261Z,21.30
2018-09-03T14:06:21.446Z,21.30
2018-09-03T14:08:49.632Z,21.10
2018-09-03T14:11:17.825Z,21.00
2018-09-03T14:13:46.029Z,20.90
2018-09-03T14:16:14.226Z,20.90
2018-09-03T14:18:42.384Z,20.70
2018-09-03T14:21:10.563Z,20.70
2018-09-03T14:23:38.830Z,20.30
2018-09-03T14:26:07.011Z,20.20
2018-09-03T14:28:37.343Z,20.20
2018-09-03T14:31:05.644Z,20.30
2018-09-03T14:33:33.831Z,20.30
2018-09-03T14:36:02.024Z,20.10
2018-09-03T14:38:30.268Z,20.00
2018-09-03T14:40:58.497Z,20.00
2018-09-03T14:43:26.716Z,20.00
2018-09-03T14:45:54.904Z,20.30
2018-09-03T14:48:23.121Z,20.50
2018-09-03T14:50:51.299Z,20.60
2018-09-03T14:53:19.524Z,20.80
2018-09-03T14:55:47.707Z,20.70
2018-09-03T14:58:16.029Z,20.60
2018-09-03T15:00:44.251Z,20.60
2018-09-03T15:03:12.540Z,20.70
2018-09-03T15:05:40.823Z,20.80
2018-09-03T15:08:09.060Z,21.00
2018-09-03T15:10:37.253Z,20.70
2018-09-03T15:13:05.607Z,20.50
2018-09-03T15:15:33.816Z,20.40
2018-09-03T15:18:02.004Z,20.60
2018-09-03T15:20:30.202Z,21.00
2018-09-03T15:22:58.441Z,21.00
2018-09-03T15:25:26.783Z,21.30
2018-09-03T15:27:54.991Z,21.50
2018-09-03T15:30:23.325Z,21.50
2018-09-03T15:32:51.520Z,21.10
2018-09-03T15:35:19.757Z,20.90
2018-09-03T15:37:47.963Z,20.90
2018-09-03T15:40:16.196Z,21.00
2018-09-03T15:42:44.550Z,21.00
2018-09-03T15:45:12.780Z,21.00
2018-09-03T15:47:41.008Z,20.80
2018-09-03T15:50:09.232Z,20.50
2018-09-03T15:52:37.563Z,20.60
2018-09-03T15:55:05.919Z,20.50
2018-09-03T15:57:34.789Z,20.50
2018-09-03T16:00:03.272Z,20.60
2018-09-03T16:02:32.545Z,20.50
2018-09-03T16:05:00.828Z,20.50
2018-09-03T16:07:29.054Z,20.60
2018-09-03T16:09:57.330Z,20.60
2018-09-03T16:12:41.101Z,20.40
2018-09-03T16:15:09.363Z,20.30
2018-09-03T16:17:37.777Z,20.40
2018-09-03T16:20:06.011Z,20.40
2018-09-03T16:22:34.247Z,20.30
2018-09-03T16:25:02.487Z,20.40
2018-09-03T16:27:30.863Z,20.40
2018-09-03T16:29:59.145Z,20.50
2018-09-03T16:32:27.427Z,20.50
2018-09-03T16:34:55.718Z,20.50
2018-09-03T16:37:23.999Z,20.50
2018-09-03T16:39:52.249Z,20.50
2018-09-03T16:42:20.506Z,20.50
2018-09-03T16:44:48.813Z,20.50
2018-09-03T16:47:17.099Z,20.50
2018-09-03T16:49:46.995Z,20.50
2018-09-03T16:52:16.041Z,20.40
2018-09-03T16:54:44.375Z,20.30
2018-09-03T16:57:12.615Z,20.20
2018-09-03T16:59:40.823Z,20.10
2018-09-03T17:02:09.179Z,20.00
2018-09-03T17:04:37.411Z,19.90
2018-09-03T17:07:05.617Z,19.80
2018-09-03T17:09:33.980Z,19.80
2018-09-03T17:12:02.189Z,19.70
2018-09-03T17:14:31.171Z,19.60
2018-09-03T17:16:59.460Z,19.60
2018-09-03T17:19:27.819Z,19.50
2018-09-03T17:21:56.031Z,19.50
2018-09-03T17:24:24.251Z,19.40
2018-09-03T17:26:52.488Z,19.30
2018-09-03T17:29:20.698Z,19.20
2018-09-03T17:31:49.009Z,19.10
2018-09-03T17:34:17.407Z,19.00
2018-09-03T17:36:45.684Z,18.90
2018-09-03T17:39:13.982Z,18.80
2018-09-03T17:41:42.249Z,18.60
2018-09-03T17:44:10.549Z,18.60
2018-09-03T17:46:38.884Z,18.40
2018-09-03T17:49:07.152Z,18.30
2018-09-03T17:51:35.495Z,18.20
2018-09-03T17:54:03.847Z,18.10
2018-09-03T17:56:32.197Z,18.00
2018-09-03T17:59:00.500Z,17.90
2018-09-03T18:01:28.770Z,17.80
2018-09-03T18:03:57.350Z,17.80
2018-09-03T18:06:25.604Z,17.80
2018-09-03T18:08:53.858Z,17.80
2018-09-03T18:11:23.350Z,17.90
2018-09-03T18:13:51.681Z,17.90
2018-09-03T18:16:20.025Z,17.90
2018-09-03T18:18:48.267Z,18.00
2018-09-03T18:21:16.549Z,18.00
2018-09-03T18:23:44.799Z,18.00
2018-09-03T18:26:13.028Z,18.00
2018-09-03T18:28:41.359Z,18.00
2018-09-03T18:31:09.587Z,18.00
2018-09-03T18:33:37.879Z,18.00
2018-09-03T18:36:06.195Z,18.00
2018-09-03T18:38:34.390Z,17.90
2018-09-03T18:41:02.673Z,17.90
2018-09-03T18:43:30.995Z,17.90
2018-09-03T18:45:59.199Z,17.90
2018-09-03T18:48:27.484Z,17.90
2018-09-03T18:50:56.773Z,17.90
2018-09-03T18:53:25.036Z,17.80
2018-09-03T18:55:53.466Z,17.80
2018-09-03T18:58:21.754Z,17.90
2018-09-03T19:00:50.008Z,17.90
2018-09-03T19:03:19.523Z,17.90
2018-09-03T19:05:49.267Z,17.80
2018-09-03T19:08:17.521Z,17.80
2018-09-03T19:10:45.882Z,17.80
2018-09-03T19:13:14.204Z,17.80
2018-09-03T19:15:43.451Z,17.70
2018-09-03T19:18:11.664Z,17.70
2018-09-03T19:20:39.921Z,17.70
2018-09-03T19:23:08.154Z,17.70
2018-09-03T19:25:36.414Z,17.70
2018-09-03T19:28:04.638Z,17.70
2018-09-03T19:30:34.524Z,17.80
2018-09-03T19:33:02.725Z,17.80
2018-09-03T19:35:30.924Z,17.70
2018-09-03T19:37:59.107Z,17.70
2018-09-03T19:40:27.536Z,17.70
2018-09-03T19:42:56.843Z,17.60
2018-09-03T19:45:25.093Z,17.50
2018-09-03T19:47:53.304Z,17.50
2018-09-03T19:50:21.539Z,17.40
2018-09-03T19:52:49.863Z,17.20
2018-09-03T19:55:18.132Z,17.20
2018-09-03T19:57:46.353Z,17.20
2018-09-03T20:00:14.534Z,17.10
2018-09-03T20:02:42.774Z,17.00
2018-09-03T20:05:11.071Z,17.00
2018-09-03T20:07:39.312Z,17.00
2018-09-03T20:10:07.811Z,17.00
2018-09-03T20:12:36.038Z,17.10
2018-09-03T20:15:04.369Z,17.20
2018-09-03T20:17:32.658Z,17.20
2018-09-03T20:20:00.917Z,17.20
2018-09-03T20:22:29.103Z,17.10
2018-09-03T20:24:57.361Z,17.10
2018-09-03T20:27:25.591Z,17.10
2018-09-03T20:29:53.827Z,17.10
2018-09-03T20:32:22.236Z,17.10
2018-09-03T20:34:50.437Z,17.10
2018-09-03T20:37:18.657Z,17.00
2018-09-03T20:39:46.847Z,16.90
2018-09-03T20:42:15.147Z,16.90
2018-09-03T20:44:43.337Z,16.80
2018-09-03T20:47:11.612Z,16.80
2018-09-03T20:49:41.871Z,16.80
2018-09-03T20:52:10.144Z,16.80
2018-09-03T20:54:38.543Z,16.70
2018-09-03T20:57:06.855Z,16.70
2018-09-03T20:59:35.133Z,16.70
2018-09-03T21:02:03.331Z,16.70
2018-09-03T21:04:31.547Z,16.70
2018-09-03T21:06:59.747Z,16.70
2018-09-03T21:09:27.972Z,16.70
2018-09-03T21:11:56.276Z,16.70
2018-09-03T21:14:24.523Z,16.70
2018-09-03T21:16:52.661Z,16.60
2018-09-03T21:19:20.843Z,16.60
2018-09-03T21:21:49.189Z,16.60
2018-09-03T21:24:30.398Z,16.60
2018-09-03T21:26:58.611Z,16.50
2018-09-03T21:29:26.866Z,16.50
2018-09-03T21:31:57.159Z,16.40
2018-09-03T21:34:25.375Z,16.40
2018-09-03T21:36:54.637Z,16.30
2018-09-03T21:39:23.748Z,16.30
2018-09-03T21:41:51.963Z,16.20
2018-09-03T21:44:24.107Z,16.20
2018-09-03T21:46:52.487Z,16.10
2018-09-03T21:49:20.628Z,16.10
2018-09-03T21:51:48.834Z,16.00
2018-09-03T21:54:17.127Z,16.00
2018-09-03T21:56:45.490Z,15.90
2018-09-03T21:59:13.715Z,15.80
2018-09-03T22:01:41.943Z,15.80
2018-09-03T22:04:10.199Z,15.80
2018-09-03T22:06:38.414Z,15.70
2018-09-03T22:09:07.209Z,15.60
2018-09-03T22:11:35.614Z,15.50
2018-09-03T22:14:03.814Z,15.50
2018-09-03T22:16:32.178Z,15.40
2018-09-03T22:19:00.442Z,15.30
2018-09-03T22:21:28.623Z,15.30
2018-09-03T22:23:56.827Z,15.30
2018-09-03T22:26:25.244Z,15.40
2018-09-03T22:28:53.507Z,15.30
2018-09-03T22:31:21.747Z,15.20
2018-09-03T22:33:49.944Z,15.20
2018-09-03T22:36:18.260Z,15.20
2018-09-03T22:38:46.450Z,15.20
2018-09-03T22:41:14.889Z,15.20
2018-09-03T22:43:43.208Z,15.10
2018-09-03T22:46:11.410Z,15.10
2018-09-03T22:48:39.683Z,15.10
2018-09-03T22:51:07.925Z,15.00
2018-09-03T22:53:36.267Z,15.00
2018-09-03T22:56:04.507Z,14.90
2018-09-03T22:58:32.797Z,14.90
2018-09-03T23:01:01.309Z,14.90
2018-09-03T23:03:29.553Z,14.90
2018-09-03T23:05:57.755Z,14.90
2018-09-03T23:08:26.268Z,14.90
2018-09-03T23:10:54.591Z,14.90
2018-09-03T23:13:23.811Z,14.90
2018-09-03T23:15:53.111Z,14.90
2018-09-03T23:18:22.893Z,14.90
2018-09-03T23:20:51.111Z,14.90
2018-09-03T23:23:19.311Z,14.80
2018-09-03T23:25:48.227Z,14.80
2018-09-03T23:28:16.459Z,14.80
2018-09-03T23:30:51.238Z,14.80
2018-09-03T23:33:19.639Z,14.80
2018-09-03T23:35:47.814Z,14.90
2018-09-03T23:38:16.056Z,15.00
2018-09-03T23:40:44.301Z,15.10
2018-09-03T23:43:12.587Z,15.20
2018-09-03T23:45:40.769Z,15.30
2018-09-03T23:48:09.088Z,15.30
2018-09-03T23:50:37.278Z,15.40
2018-09-03T23:53:05.492Z,15.40
2018-09-03T23:55:33.695Z,15.40
2018-09-03T23:58:01.901Z,15.50
